KRNH/RNH METAR and TAF weather

Enter ICAO airport designator
Station Type Date Time Source
KRNH METAR 2022/01/27 23:15 UTC NOAA

KRNH 272315Z AUTO 34006KT 10SM CLR M10/M18 A3028 RMK AO2 T10981176


Station Type Date Time Source
KRNH Decoded METAR 2022/01/27 23:15 UTC NOAA

New Richmond, New Richmond Municipal Airport, WI, United States (KRNH) 45-08-54N 092-32-17W
Jan 27, 2022 - 06:15 PM EST / 2022.01.27 2315 UTC
Wind: from the NNW (340 degrees) at 7 MPH (6 KT):0
Visibility: 10 mile(s):0
Sky conditions: clear
Temperature: 14.4 F (-9.8 C)
Windchill: 5 F (-15 C):1
Dew Point: 0.3 F (-17.6 C)
Relative Humidity: 52%
Pressure (altimeter): 30.28 in. Hg (1025 hPa)
ob: KRNH 272315Z AUTO 34006KT 10SM CLR M10/M18 A3028 RMK AO2 T10981176
cycle: 23

Station Type Date Time Source
KRNH TAF 2022/01/27 18:34 UTC NOAA

TAF KRNH 271732Z 2718/2818 33013KT P6SM OVC050
FM280100 32006KT P6SM FEW250
FM281200 VRB03KT P6SM BKN150
FM281500 24005KT P6SM BKN120

Example: see airport list